Polikhnitos, Greece
Current Conditions -  °F | °C
As of 11:20 PM on Wednesday 17 Dec 2014 (Local Time) from LGMT Reporting Station
Light Rain Light Rain  
Wind Chill: 57°   Ceiling: 8000
Heat Index: 57°   Visibility: 6mi
Dew Point: 52°   Wind: 8mph
Humidity: 82%   Direction: 260°W
Pressure: 30"   Gusts: NA
Location:  39.08°N, 26.18°E
Report Text: LGMT 172120Z 26007KT 220V320 9000 -RA FEW018CB SCT020 BKN080 14/11 Q1016
Loading
Personal Weather Stations






























Interactive Weather Map New forecast layout! Learn more

10-Day Weather Forecast

Advertisements
Track Severe Weather on mobile